sensor_id;sensor_type;location;lat;lon;timestamp;P1;durP1;ratioP1;P2;durP2;ratioP2
48975;SDS011;34791;52.752;8.346;2023-05-31T00:02:00;81.90;;;17.13;;
48975;SDS011;34791;52.752;8.346;2023-05-31T00:04:25;84.73;;;17.13;;
48975;SDS011;34791;52.752;8.346;2023-05-31T00:06:50;83.77;;;17.37;;
48975;SDS011;34791;52.752;8.346;2023-05-31T00:09:16;88.77;;;17.17;;
48975;SDS011;34791;52.752;8.346;2023-05-31T00:11:41;86.90;;;17.87;;
48975;SDS011;34791;52.752;8.346;2023-05-31T00:14:06;83.90;;;17.80;;
48975;SDS011;34791;52.752;8.346;2023-05-31T00:16:32;90.90;;;19.33;;
48975;SDS011;34791;52.752;8.346;2023-05-31T00:18:57;96.77;;;18.90;;
48975;SDS011;34791;52.752;8.346;2023-05-31T00:21:23;88.23;;;18.60;;
48975;SDS011;34791;52.752;8.346;2023-05-31T00:23:48;91.37;;;17.93;;
48975;SDS011;34791;52.752;8.346;2023-05-31T00:26:13;87.27;;;17.57;;
48975;SDS011;34791;52.752;8.346;2023-05-31T00:28:38;83.23;;;17.63;;
48975;SDS011;34791;52.752;8.346;2023-05-31T00:31:04;93.73;;;17.80;;
48975;SDS011;34791;52.752;8.346;2023-05-31T00:33:29;99.27;;;18.70;;
48975;SDS011;34791;52.752;8.346;2023-05-31T00:35:54;95.83;;;18.47;;
48975;SDS011;34791;52.752;8.346;2023-05-31T00:38:20;97.10;;;18.53;;
48975;SDS011;34791;52.752;8.346;2023-05-31T00:40:45;97.13;;;18.27;;
48975;SDS011;34791;52.752;8.346;2023-05-31T00:43:12;101.03;;;17.80;;
48975;SDS011;34791;52.752;8.346;2023-05-31T00:45:37;105.43;;;18.87;;
48975;SDS011;34791;52.752;8.346;2023-05-31T00:48:02;89.00;;;17.10;;
48975;SDS011;34791;52.752;8.346;2023-05-31T00:50:28;99.70;;;17.67;;
48975;SDS011;34791;52.752;8.346;2023-05-31T00:52:54;110.97;;;19.27;;
48975;SDS011;34791;52.752;8.346;2023-05-31T00:55:20;99.87;;;18.63;;
48975;SDS011;34791;52.752;8.346;2023-05-31T00:57:45;105.23;;;19.97;;
48975;SDS011;34791;52.752;8.346;2023-05-31T01:03:14;92.53;;;17.50;;
48975;SDS011;34791;52.752;8.346;2023-05-31T01:05:40;89.63;;;17.87;;
48975;SDS011;34791;52.752;8.346;2023-05-31T01:08:06;97.57;;;18.63;;
48975;SDS011;34791;52.752;8.346;2023-05-31T01:10:32;114.10;;;19.47;;
48975;SDS011;34791;52.752;8.346;2023-05-31T01:15:56;94.60;;;18.27;;
48975;SDS011;34791;52.752;8.346;2023-05-31T01:18:24;98.63;;;18.30;;
48975;SDS011;34791;52.752;8.346;2023-05-31T01:20:52;97.17;;;18.53;;
48975;SDS011;34791;52.752;8.346;2023-05-31T01:29:10;97.90;;;17.53;;
48975;SDS011;34791;52.752;8.346;2023-05-31T01:31:36;103.73;;;19.43;;
48975;SDS011;34791;52.752;8.346;2023-05-31T01:34:03;93.33;;;18.67;;
48975;SDS011;34791;52.752;8.346;2023-05-31T01:36:28;111.40;;;19.27;;
48975;SDS011;34791;52.752;8.346;2023-05-31T01:38:54;106.00;;;19.17;;
48975;SDS011;34791;52.752;8.346;2023-05-31T01:41:19;117.03;;;20.20;;
48975;SDS011;34791;52.752;8.346;2023-05-31T01:43:45;105.00;;;20.10;;
48975;SDS011;34791;52.752;8.346;2023-05-31T01:46:12;109.03;;;19.27;;
48975;SDS011;34791;52.752;8.346;2023-05-31T01:48:38;107.10;;;20.67;;
48975;SDS011;34791;52.752;8.346;2023-05-31T01:51:04;107.37;;;20.53;;
48975;SDS011;34791;52.752;8.346;2023-05-31T01:53:31;118.13;;;20.27;;
48975;SDS011;34791;52.752;8.346;2023-05-31T01:55:56;119.27;;;19.87;;
48975;SDS011;34791;52.752;8.346;2023-05-31T01:58:23;124.63;;;20.73;;
48975;SDS011;34791;52.752;8.346;2023-05-31T02:00:49;105.37;;;19.13;;
48975;SDS011;34791;52.752;8.346;2023-05-31T02:03:15;123.03;;;20.10;;
48975;SDS011;34791;52.752;8.346;2023-05-31T02:05:59;115.57;;;19.93;;
48975;SDS011;34791;52.752;8.346;2023-05-31T02:08:25;125.57;;;20.27;;
48975;SDS011;34791;52.752;8.346;2023-05-31T02:10:51;120.87;;;20.27;;
48975;SDS011;34791;52.752;8.346;2023-05-31T02:13:17;116.10;;;20.90;;
48975;SDS011;34791;52.752;8.346;2023-05-31T02:15:42;112.70;;;20.10;;
48975;SDS011;34791;52.752;8.346;2023-05-31T02:18:08;111.13;;;19.70;;
48975;SDS011;34791;52.752;8.346;2023-05-31T02:20:33;106.20;;;19.50;;
48975;SDS011;34791;52.752;8.346;2023-05-31T02:22:58;116.40;;;20.40;;
48975;SDS011;34791;52.752;8.346;2023-05-31T02:25:24;115.93;;;19.90;;
48975;SDS011;34791;52.752;8.346;2023-05-31T02:27:49;114.93;;;19.70;;
48975;SDS011;34791;52.752;8.346;2023-05-31T02:30:14;108.63;;;20.07;;
48975;SDS011;34791;52.752;8.346;2023-05-31T02:32:40;102.47;;;20.00;;
48975;SDS011;34791;52.752;8.346;2023-05-31T02:35:07;108.10;;;20.37;;
48975;SDS011;34791;52.752;8.346;2023-05-31T02:37:32;112.47;;;21.50;;
48975;SDS011;34791;52.752;8.346;2023-05-31T02:39:58;112.77;;;19.87;;
48975;SDS011;34791;52.752;8.346;2023-05-31T02:42:23;99.07;;;19.40;;
48975;SDS011;34791;52.752;8.346;2023-05-31T02:44:48;104.37;;;20.27;;
48975;SDS011;34791;52.752;8.346;2023-05-31T02:47:14;101.67;;;19.60;;
48975;SDS011;34791;52.752;8.346;2023-05-31T02:49:39;113.47;;;20.73;;
48975;SDS011;34791;52.752;8.346;2023-05-31T02:52:04;111.33;;;20.30;;
48975;SDS011;34791;52.752;8.346;2023-05-31T02:54:30;109.37;;;20.77;;
48975;SDS011;34791;52.752;8.346;2023-05-31T02:56:55;108.53;;;19.47;;
48975;SDS011;34791;52.752;8.346;2023-05-31T02:59:21;107.43;;;19.73;;
48975;SDS011;34791;52.752;8.346;2023-05-31T03:01:46;95.07;;;18.33;;
48975;SDS011;34791;52.752;8.346;2023-05-31T03:04:11;92.67;;;19.57;;
48975;SDS011;34791;52.752;8.346;2023-05-31T03:06:36;108.63;;;19.97;;
48975;SDS011;34791;52.752;8.346;2023-05-31T03:09:04;116.20;;;20.23;;
48975;SDS011;34791;52.752;8.346;2023-05-31T03:11:30;98.40;;;19.70;;
48975;SDS011;34791;52.752;8.346;2023-05-31T03:13:55;112.73;;;21.50;;
48975;SDS011;34791;52.752;8.346;2023-05-31T03:16:20;110.73;;;21.53;;
48975;SDS011;34791;52.752;8.346;2023-05-31T03:18:45;120.13;;;22.47;;
48975;SDS011;34791;52.752;8.346;2023-05-31T03:21:11;115.83;;;21.03;;
48975;SDS011;34791;52.752;8.346;2023-05-31T03:23:36;119.27;;;21.63;;
48975;SDS011;34791;52.752;8.346;2023-05-31T03:26:02;110.17;;;20.60;;
48975;SDS011;34791;52.752;8.346;2023-05-31T03:28:27;96.63;;;20.30;;
48975;SDS011;34791;52.752;8.346;2023-05-31T03:30:53;105.87;;;20.23;;
48975;SDS011;34791;52.752;8.346;2023-05-31T03:33:18;107.97;;;20.13;;
48975;SDS011;34791;52.752;8.346;2023-05-31T03:35:43;109.77;;;21.40;;
48975;SDS011;34791;52.752;8.346;2023-05-31T03:38:09;99.67;;;20.83;;
48975;SDS011;34791;52.752;8.346;2023-05-31T03:40:35;109.17;;;21.87;;
48975;SDS011;34791;52.752;8.346;2023-05-31T03:43:01;104.13;;;20.17;;
48975;SDS011;34791;52.752;8.346;2023-05-31T03:45:26;109.77;;;22.80;;
48975;SDS011;34791;52.752;8.346;2023-05-31T03:47:51;115.83;;;24.87;;
48975;SDS011;34791;52.752;8.346;2023-05-31T03:50:16;127.33;;;24.70;;
48975;SDS011;34791;52.752;8.346;2023-05-31T03:52:42;115.73;;;24.53;;
48975;SDS011;34791;52.752;8.346;2023-05-31T03:55:07;118.57;;;24.27;;
48975;SDS011;34791;52.752;8.346;2023-05-31T03:57:33;114.00;;;25.50;;
48975;SDS011;34791;52.752;8.346;2023-05-31T03:59:58;113.80;;;25.90;;
48975;SDS011;34791;52.752;8.346;2023-05-31T04:02:24;123.10;;;26.80;;
48975;SDS011;34791;52.752;8.346;2023-05-31T04:04:50;117.97;;;28.37;;
48975;SDS011;34791;52.752;8.346;2023-05-31T04:07:15;107.47;;;25.83;;
48975;SDS011;34791;52.752;8.346;2023-05-31T04:09:40;98.10;;;24.53;;
48975;SDS011;34791;52.752;8.346;2023-05-31T04:12:06;94.07;;;25.43;;
48975;SDS011;34791;52.752;8.346;2023-05-31T04:14:31;87.27;;;22.73;;
48975;SDS011;34791;52.752;8.346;2023-05-31T04:16:57;68.40;;;19.73;;
48975;SDS011;34791;52.752;8.346;2023-05-31T04:19:22;57.80;;;18.80;;
48975;SDS011;34791;52.752;8.346;2023-05-31T04:21:47;46.27;;;16.43;;
48975;SDS011;34791;52.752;8.346;2023-05-31T04:24:12;42.20;;;13.73;;
48975;SDS011;34791;52.752;8.346;2023-05-31T04:26:38;36.23;;;13.20;;
48975;SDS011;34791;52.752;8.346;2023-05-31T04:29:03;32.40;;;12.53;;
48975;SDS011;34791;52.752;8.346;2023-05-31T04:31:29;28.97;;;11.73;;
48975;SDS011;34791;52.752;8.346;2023-05-31T04:33:54;27.70;;;11.30;;
48975;SDS011;34791;52.752;8.346;2023-05-31T04:36:22;23.90;;;10.33;;
48975;SDS011;34791;52.752;8.346;2023-05-31T04:38:47;22.40;;;9.40;;
48975;SDS011;34791;52.752;8.346;2023-05-31T04:41:13;18.53;;;8.63;;
48975;SDS011;34791;52.752;8.346;2023-05-31T04:43:40;20.27;;;9.00;;
48975;SDS011;34791;52.752;8.346;2023-05-31T04:46:07;18.37;;;8.07;;
48975;SDS011;34791;52.752;8.346;2023-05-31T04:48:34;14.45;;;7.10;;
48975;SDS011;34791;52.752;8.346;2023-05-31T04:50:59;14.95;;;7.25;;
48975;SDS011;34791;52.752;8.346;2023-05-31T04:53:25;18.20;;;7.30;;
48975;SDS011;34791;52.752;8.346;2023-05-31T04:55:50;13.93;;;7.28;;
48975;SDS011;34791;52.752;8.346;2023-05-31T04:58:16;17.20;;;7.20;;
48975;SDS011;34791;52.752;8.346;2023-05-31T05:00:42;14.02;;;7.68;;
48975;SDS011;34791;52.752;8.346;2023-05-31T05:03:07;15.32;;;7.28;;
48975;SDS011;34791;52.752;8.346;2023-05-31T05:05:33;18.10;;;7.72;;
48975;SDS011;34791;52.752;8.346;2023-05-31T05:07:58;16.52;;;7.40;;
48975;SDS011;34791;52.752;8.346;2023-05-31T05:10:23;16.90;;;7.13;;
48975;SDS011;34791;52.752;8.346;2023-05-31T05:12:49;17.58;;;7.43;;
48975;SDS011;34791;52.752;8.346;2023-05-31T05:15:14;17.42;;;7.95;;
48975;SDS011;34791;52.752;8.346;2023-05-31T05:17:39;19.88;;;8.13;;
48975;SDS011;34791;52.752;8.346;2023-05-31T05:20:06;15.13;;;7.07;;
48975;SDS011;34791;52.752;8.346;2023-05-31T05:22:33;16.02;;;7.97;;
48975;SDS011;34791;52.752;8.346;2023-05-31T05:24:58;14.73;;;7.72;;
48975;SDS011;34791;52.752;8.346;2023-05-31T05:27:24;20.77;;;8.52;;
48975;SDS011;34791;52.752;8.346;2023-05-31T05:29:49;16.63;;;8.98;;
48975;SDS011;34791;52.752;8.346;2023-05-31T05:32:14;17.73;;;8.55;;
48975;SDS011;34791;52.752;8.346;2023-05-31T05:34:40;20.90;;;8.57;;
48975;SDS011;34791;52.752;8.346;2023-05-31T05:37:05;15.85;;;8.48;;
48975;SDS011;34791;52.752;8.346;2023-05-31T05:39:31;17.88;;;8.50;;
48975;SDS011;34791;52.752;8.346;2023-05-31T05:41:56;16.67;;;8.15;;
48975;SDS011;34791;52.752;8.346;2023-05-31T05:44:21;17.48;;;8.02;;
48975;SDS011;34791;52.752;8.346;2023-05-31T05:46:46;20.30;;;8.35;;
48975;SDS011;34791;52.752;8.346;2023-05-31T05:49:12;20.40;;;8.80;;
48975;SDS011;34791;52.752;8.346;2023-05-31T05:51:37;19.77;;;8.45;;
48975;SDS011;34791;52.752;8.346;2023-05-31T05:54:03;17.05;;;8.50;;
48975;SDS011;34791;52.752;8.346;2023-05-31T05:56:28;15.65;;;8.27;;
48975;SDS011;34791;52.752;8.346;2023-05-31T05:58:53;18.13;;;8.65;;
48975;SDS011;34791;52.752;8.346;2023-05-31T06:01:19;16.08;;;8.38;;
48975;SDS011;34791;52.752;8.346;2023-05-31T06:03:45;17.98;;;8.82;;
48975;SDS011;34791;52.752;8.346;2023-05-31T06:06:11;18.80;;;9.18;;
48975;SDS011;34791;52.752;8.346;2023-05-31T06:08:36;16.27;;;8.57;;
48975;SDS011;34791;52.752;8.346;2023-05-31T06:11:01;17.60;;;8.50;;
48975;SDS011;34791;52.752;8.346;2023-05-31T06:13:28;17.38;;;8.07;;
48975;SDS011;34791;52.752;8.346;2023-05-31T06:15:53;16.40;;;7.97;;
48975;SDS011;34791;52.752;8.346;2023-05-31T06:18:18;15.48;;;7.55;;
48975;SDS011;34791;52.752;8.346;2023-05-31T06:20:44;14.02;;;7.70;;
48975;SDS011;34791;52.752;8.346;2023-05-31T06:23:09;12.18;;;7.18;;
48975;SDS011;34791;52.752;8.346;2023-05-31T06:25:34;17.88;;;7.20;;
48975;SDS011;34791;52.752;8.346;2023-05-31T06:28:01;16.73;;;6.32;;
48975;SDS011;34791;52.752;8.346;2023-05-31T06:30:26;14.77;;;6.95;;
48975;SDS011;34791;52.752;8.346;2023-05-31T06:32:51;16.95;;;6.65;;
48975;SDS011;34791;52.752;8.346;2023-05-31T06:35:16;14.13;;;7.28;;
48975;SDS011;34791;52.752;8.346;2023-05-31T06:37:42;14.10;;;6.30;;
48975;SDS011;34791;52.752;8.346;2023-05-31T06:40:08;12.88;;;7.13;;
48975;SDS011;34791;52.752;8.346;2023-05-31T06:42:34;14.13;;;6.15;;
48975;SDS011;34791;52.752;8.346;2023-05-31T06:44:59;12.70;;;6.22;;
48975;SDS011;34791;52.752;8.346;2023-05-31T06:47:25;12.25;;;6.40;;
48975;SDS011;34791;52.752;8.346;2023-05-31T06:49:50;13.70;;;7.03;;
48975;SDS011;34791;52.752;8.346;2023-05-31T06:52:16;12.80;;;6.20;;
48975;SDS011;34791;52.752;8.346;2023-05-31T06:54:41;12.30;;;6.25;;
48975;SDS011;34791;52.752;8.346;2023-05-31T06:57:07;13.63;;;7.03;;
48975;SDS011;34791;52.752;8.346;2023-05-31T06:59:33;13.50;;;5.47;;
48975;SDS011;34791;52.752;8.346;2023-05-31T07:01:58;14.95;;;7.10;;
48975;SDS011;34791;52.752;8.346;2023-05-31T07:04:23;13.15;;;7.25;;
48975;SDS011;34791;52.752;8.346;2023-05-31T07:06:49;11.68;;;5.82;;
48975;SDS011;34791;52.752;8.346;2023-05-31T07:09:14;13.73;;;6.25;;
48975;SDS011;34791;52.752;8.346;2023-05-31T07:11:40;11.38;;;5.68;;
48975;SDS011;34791;52.752;8.346;2023-05-31T07:14:05;11.80;;;5.90;;
48975;SDS011;34791;52.752;8.346;2023-05-31T07:16:31;10.23;;;5.28;;
48975;SDS011;34791;52.752;8.346;2023-05-31T07:18:56;10.93;;;5.10;;
48975;SDS011;34791;52.752;8.346;2023-05-31T07:21:21;14.27;;;5.57;;
48975;SDS011;34791;52.752;8.346;2023-05-31T07:23:47;11.20;;;5.20;;
48975;SDS011;34791;52.752;8.346;2023-05-31T07:26:12;13.20;;;5.28;;
48975;SDS011;34791;52.752;8.346;2023-05-31T07:28:37;11.07;;;5.25;;
48975;SDS011;34791;52.752;8.346;2023-05-31T07:31:03;13.27;;;5.00;;
48975;SDS011;34791;52.752;8.346;2023-05-31T07:33:28;10.75;;;5.18;;
48975;SDS011;34791;52.752;8.346;2023-05-31T07:35:54;10.90;;;5.18;;
48975;SDS011;34791;52.752;8.346;2023-05-31T07:38:19;11.10;;;4.80;;
48975;SDS011;34791;52.752;8.346;2023-05-31T07:40:44;9.82;;;5.00;;
48975;SDS011;34791;52.752;8.346;2023-05-31T07:43:10;10.52;;;5.32;;
48975;SDS011;34791;52.752;8.346;2023-05-31T07:45:38;13.43;;;5.30;;
48975;SDS011;34791;52.752;8.346;2023-05-31T07:48:04;11.10;;;5.50;;
48975;SDS011;34791;52.752;8.346;2023-05-31T07:50:29;8.25;;;3.78;;
48975;SDS011;34791;52.752;8.346;2023-05-31T07:52:55;9.43;;;4.32;;
48975;SDS011;34791;52.752;8.346;2023-05-31T07:55:20;11.32;;;4.70;;
48975;SDS011;34791;52.752;8.346;2023-05-31T07:57:45;8.77;;;3.85;;
48975;SDS011;34791;52.752;8.346;2023-05-31T08:00:11;9.35;;;3.85;;
48975;SDS011;34791;52.752;8.346;2023-05-31T08:02:38;10.02;;;4.28;;
48975;SDS011;34791;52.752;8.346;2023-05-31T08:05:04;8.80;;;4.00;;
48975;SDS011;34791;52.752;8.346;2023-05-31T08:07:29;8.25;;;3.50;;
48975;SDS011;34791;52.752;8.346;2023-05-31T08:09:55;10.77;;;3.95;;
48975;SDS011;34791;52.752;8.346;2023-05-31T08:12:20;7.88;;;3.42;;
48975;SDS011;34791;52.752;8.346;2023-05-31T08:14:45;7.78;;;3.58;;
48975;SDS011;34791;52.752;8.346;2023-05-31T08:17:11;10.02;;;4.13;;
48975;SDS011;34791;52.752;8.346;2023-05-31T08:19:36;8.25;;;3.80;;
48975;SDS011;34791;52.752;8.346;2023-05-31T08:22:01;9.60;;;3.90;;
48975;SDS011;34791;52.752;8.346;2023-05-31T08:24:27;9.52;;;3.70;;
48975;SDS011;34791;52.752;8.346;2023-05-31T08:26:53;10.75;;;4.13;;
48975;SDS011;34791;52.752;8.346;2023-05-31T08:29:18;7.68;;;3.05;;
48975;SDS011;34791;52.752;8.346;2023-05-31T08:31:43;6.55;;;2.90;;
48975;SDS011;34791;52.752;8.346;2023-05-31T08:34:09;8.48;;;2.80;;
48975;SDS011;34791;52.752;8.346;2023-05-31T08:36:34;7.07;;;2.92;;
48975;SDS011;34791;52.752;8.346;2023-05-31T08:38:59;5.93;;;2.25;;
48975;SDS011;34791;52.752;8.346;2023-05-31T08:41:25;6.88;;;2.38;;
48975;SDS011;34791;52.752;8.346;2023-05-31T08:43:52;9.82;;;2.80;;
48975;SDS011;34791;52.752;8.346;2023-05-31T08:46:19;6.53;;;2.50;;
48975;SDS011;34791;52.752;8.346;2023-05-31T08:48:53;5.45;;;2.53;;
48975;SDS011;34791;52.752;8.346;2023-05-31T08:51:19;8.73;;;3.10;;
48975;SDS011;34791;52.752;8.346;2023-05-31T08:53:45;10.07;;;2.97;;
48975;SDS011;34791;52.752;8.346;2023-05-31T08:56:11;9.07;;;3.10;;
48975;SDS011;34791;52.752;8.346;2023-05-31T08:58:37;9.05;;;3.08;;
48975;SDS011;34791;52.752;8.346;2023-05-31T09:01:03;6.28;;;2.70;;
48975;SDS011;34791;52.752;8.346;2023-05-31T09:03:31;9.88;;;2.88;;
48975;SDS011;34791;52.752;8.346;2023-05-31T09:05:57;10.80;;;2.97;;
48975;SDS011;34791;52.752;8.346;2023-05-31T09:08:23;9.98;;;2.90;;
48975;SDS011;34791;52.752;8.346;2023-05-31T09:10:49;6.15;;;2.80;;
48975;SDS011;34791;52.752;8.346;2023-05-31T09:13:14;7.00;;;2.75;;
48975;SDS011;34791;52.752;8.346;2023-05-31T09:15:40;6.93;;;2.70;;
48975;SDS011;34791;52.752;8.346;2023-05-31T09:18:18;8.65;;;3.42;;
48975;SDS011;34791;52.752;8.346;2023-05-31T09:20:44;9.32;;;2.50;;
48975;SDS011;34791;52.752;8.346;2023-05-31T09:23:11;10.55;;;2.53;;
48975;SDS011;34791;52.752;8.346;2023-05-31T09:25:46;5.68;;;2.30;;
48975;SDS011;34791;52.752;8.346;2023-05-31T09:28:12;10.02;;;2.78;;
48975;SDS011;34791;52.752;8.346;2023-05-31T09:30:37;7.05;;;2.70;;
48975;SDS011;34791;52.752;8.346;2023-05-31T09:33:02;9.35;;;2.33;;
48975;SDS011;34791;52.752;8.346;2023-05-31T09:35:28;8.35;;;2.30;;
48975;SDS011;34791;52.752;8.346;2023-05-31T09:37:53;4.70;;;1.63;;
48975;SDS011;34791;52.752;8.346;2023-05-31T09:40:25;9.73;;;2.30;;
48975;SDS011;34791;52.752;8.346;2023-05-31T09:42:51;6.60;;;1.83;;
48975;SDS011;34791;52.752;8.346;2023-05-31T09:45:16;8.05;;;1.95;;
48975;SDS011;34791;52.752;8.346;2023-05-31T09:47:42;7.38;;;2.28;;
48975;SDS011;34791;52.752;8.346;2023-05-31T09:50:08;9.63;;;2.17;;
48975;SDS011;34791;52.752;8.346;2023-05-31T09:52:33;8.43;;;2.15;;
48975;SDS011;34791;52.752;8.346;2023-05-31T09:55:06;11.45;;;2.30;;
48975;SDS011;34791;52.752;8.346;2023-05-31T09:57:32;8.57;;;1.95;;
48975;SDS011;34791;52.752;8.346;2023-05-31T09:59:58;6.68;;;2.00;;
48975;SDS011;34791;52.752;8.346;2023-05-31T10:02:29;5.53;;;1.80;;
48975;SDS011;34791;52.752;8.346;2023-05-31T10:04:55;10.38;;;2.10;;
48975;SDS011;34791;52.752;8.346;2023-05-31T10:07:21;5.78;;;2.00;;
48975;SDS011;34791;52.752;8.346;2023-05-31T10:09:47;7.50;;;2.03;;
48975;SDS011;34791;52.752;8.346;2023-05-31T10:12:12;12.07;;;2.13;;
48975;SDS011;34791;52.752;8.346;2023-05-31T10:14:38;7.35;;;2.45;;
48975;SDS011;34791;52.752;8.346;2023-05-31T10:17:06;11.75;;;2.60;;
48975;SDS011;34791;52.752;8.346;2023-05-31T10:19:37;6.50;;;2.33;;
48975;SDS011;34791;52.752;8.346;2023-05-31T10:22:05;9.13;;;2.50;;
48975;SDS011;34791;52.752;8.346;2023-05-31T10:24:37;7.68;;;2.40;;
48975;SDS011;34791;52.752;8.346;2023-05-31T10:29:33;8.10;;;2.63;;
48975;SDS011;34791;52.752;8.346;2023-05-31T10:32:06;7.43;;;2.20;;
48975;SDS011;34791;52.752;8.346;2023-05-31T10:34:33;6.60;;;2.22;;
48975;SDS011;34791;52.752;8.346;2023-05-31T10:36:58;7.28;;;2.63;;
48975;SDS011;34791;52.752;8.346;2023-05-31T10:44:57;7.05;;;2.50;;
48975;SDS011;34791;52.752;8.346;2023-05-31T10:47:26;8.55;;;2.45;;
48975;SDS011;34791;52.752;8.346;2023-05-31T10:49:53;8.05;;;2.20;;
48975;SDS011;34791;52.752;8.346;2023-05-31T10:52:20;6.30;;;2.05;;
48975;SDS011;34791;52.752;8.346;2023-05-31T10:54:46;8.57;;;2.22;;
48975;SDS011;34791;52.752;8.346;2023-05-31T10:57:11;6.50;;;2.33;;
48975;SDS011;34791;52.752;8.346;2023-05-31T10:59:44;6.93;;;1.98;;
48975;SDS011;34791;52.752;8.346;2023-05-31T11:02:10;8.32;;;2.00;;
48975;SDS011;34791;52.752;8.346;2023-05-31T11:04:36;6.07;;;1.88;;
48975;SDS011;34791;52.752;8.346;2023-05-31T11:07:11;5.82;;;1.90;;
48975;SDS011;34791;52.752;8.346;2023-05-31T11:09:37;5.88;;;1.92;;
48975;SDS011;34791;52.752;8.346;2023-05-31T11:12:03;7.32;;;1.98;;
48975;SDS011;34791;52.752;8.346;2023-05-31T11:14:29;6.00;;;1.70;;
48975;SDS011;34791;52.752;8.346;2023-05-31T11:17:13;6.90;;;2.00;;
48975;SDS011;34791;52.752;8.346;2023-05-31T11:19:39;6.75;;;1.73;;
48975;SDS011;34791;52.752;8.346;2023-05-31T11:22:07;6.75;;;1.88;;
48975;SDS011;34791;52.752;8.346;2023-05-31T11:27:37;6.20;;;2.00;;
48975;SDS011;34791;52.752;8.346;2023-05-31T11:30:06;4.55;;;1.50;;
48975;SDS011;34791;52.752;8.346;2023-05-31T11:35:20;10.10;;;1.70;;
48975;SDS011;34791;52.752;8.346;2023-05-31T11:37:46;4.55;;;1.60;;
48975;SDS011;34791;52.752;8.346;2023-05-31T11:40:12;7.07;;;1.80;;
48975;SDS011;34791;52.752;8.346;2023-05-31T11:42:38;4.90;;;1.70;;
48975;SDS011;34791;52.752;8.346;2023-05-31T11:45:07;5.95;;;2.05;;
48975;SDS011;34791;52.752;8.346;2023-05-31T11:47:35;7.13;;;1.90;;
48975;SDS011;34791;52.752;8.346;2023-05-31T11:50:03;7.95;;;2.40;;
48975;SDS011;34791;52.752;8.346;2023-05-31T11:52:28;8.73;;;1.90;;
48975;SDS011;34791;52.752;8.346;2023-05-31T11:54:53;5.47;;;1.50;;
48975;SDS011;34791;52.752;8.346;2023-05-31T11:57:21;5.43;;;1.65;;
48975;SDS011;34791;52.752;8.346;2023-05-31T11:59:47;6.50;;;1.77;;
48975;SDS011;34791;52.752;8.346;2023-05-31T12:02:12;9.35;;;1.70;;
48975;SDS011;34791;52.752;8.346;2023-05-31T12:04:38;6.95;;;1.90;;
48975;SDS011;34791;52.752;8.346;2023-05-31T12:07:05;7.03;;;1.73;;
48975;SDS011;34791;52.752;8.346;2023-05-31T12:09:31;5.32;;;1.70;;
48975;SDS011;34791;52.752;8.346;2023-05-31T12:11:57;6.07;;;1.70;;
48975;SDS011;34791;52.752;8.346;2023-05-31T12:14:23;6.50;;;1.63;;
48975;SDS011;34791;52.752;8.346;2023-05-31T12:16:49;7.45;;;1.88;;
48975;SDS011;34791;52.752;8.346;2023-05-31T12:19:14;4.70;;;1.60;;
48975;SDS011;34791;52.752;8.346;2023-05-31T12:21:40;6.15;;;1.80;;
48975;SDS011;34791;52.752;8.346;2023-05-31T12:24:12;4.88;;;1.50;;
48975;SDS011;34791;52.752;8.346;2023-05-31T12:26:38;6.80;;;1.92;;
48975;SDS011;34791;52.752;8.346;2023-05-31T12:29:03;6.15;;;1.70;;
48975;SDS011;34791;52.752;8.346;2023-05-31T12:31:29;5.57;;;1.73;;
48975;SDS011;34791;52.752;8.346;2023-05-31T12:34:07;5.40;;;1.70;;
48975;SDS011;34791;52.752;8.346;2023-05-31T12:36:51;4.93;;;1.60;;
48975;SDS011;34791;52.752;8.346;2023-05-31T12:39:20;5.07;;;1.40;;
48975;SDS011;34791;52.752;8.346;2023-05-31T12:41:48;5.55;;;1.60;;
48975;SDS011;34791;52.752;8.346;2023-05-31T12:44:17;6.40;;;2.20;;
48975;SDS011;34791;52.752;8.346;2023-05-31T12:46:45;7.47;;;2.35;;
48975;SDS011;34791;52.752;8.346;2023-05-31T12:49:18;7.53;;;2.22;;
48975;SDS011;34791;52.752;8.346;2023-05-31T12:51:43;5.97;;;2.25;;
48975;SDS011;34791;52.752;8.346;2023-05-31T12:54:27;6.05;;;2.17;;
48975;SDS011;34791;52.752;8.346;2023-05-31T12:56:53;7.28;;;2.30;;
48975;SDS011;34791;52.752;8.346;2023-05-31T12:59:18;10.55;;;2.50;;
48975;SDS011;34791;52.752;8.346;2023-05-31T13:01:44;8.73;;;2.40;;
48975;SDS011;34791;52.752;8.346;2023-05-31T13:04:10;6.43;;;2.25;;
48975;SDS011;34791;52.752;8.346;2023-05-31T13:06:36;6.30;;;1.92;;
48975;SDS011;34791;52.752;8.346;2023-05-31T13:09:02;6.50;;;2.10;;
48975;SDS011;34791;52.752;8.346;2023-05-31T13:11:30;7.57;;;1.90;;
48975;SDS011;34791;52.752;8.346;2023-05-31T13:13:55;6.68;;;1.70;;
48975;SDS011;34791;52.752;8.346;2023-05-31T13:16:20;5.78;;;1.90;;
48975;SDS011;34791;52.752;8.346;2023-05-31T13:18:46;6.30;;;1.90;;
48975;SDS011;34791;52.752;8.346;2023-05-31T13:21:11;7.72;;;2.10;;
48975;SDS011;34791;52.752;8.346;2023-05-31T13:23:37;5.85;;;1.60;;
48975;SDS011;34791;52.752;8.346;2023-05-31T13:26:02;5.57;;;1.50;;
48975;SDS011;34791;52.752;8.346;2023-05-31T13:28:27;5.43;;;1.50;;
48975;SDS011;34791;52.752;8.346;2023-05-31T13:30:53;5.63;;;1.80;;
48975;SDS011;34791;52.752;8.346;2023-05-31T13:33:18;6.82;;;1.90;;
48975;SDS011;34791;52.752;8.346;2023-05-31T13:35:45;6.03;;;1.70;;
48975;SDS011;34791;52.752;8.346;2023-05-31T13:38:10;5.68;;;1.75;;
48975;SDS011;34791;52.752;8.346;2023-05-31T13:40:35;4.50;;;1.25;;
48975;SDS011;34791;52.752;8.346;2023-05-31T13:43:02;6.22;;;1.20;;
48975;SDS011;34791;52.752;8.346;2023-05-31T13:45:27;3.47;;;1.25;;
48975;SDS011;34791;52.752;8.346;2023-05-31T13:47:52;6.47;;;1.92;;
48975;SDS011;34791;52.752;8.346;2023-05-31T13:50:18;4.05;;;1.35;;
48975;SDS011;34791;52.752;8.346;2023-05-31T13:52:43;4.55;;;1.38;;
48975;SDS011;34791;52.752;8.346;2023-05-31T13:55:08;7.35;;;1.80;;
48975;SDS011;34791;52.752;8.346;2023-05-31T13:57:34;7.18;;;1.85;;
48975;SDS011;34791;52.752;8.346;2023-05-31T13:59:59;4.43;;;1.33;;
48975;SDS011;34791;52.752;8.346;2023-05-31T14:02:24;4.38;;;1.23;;
48975;SDS011;34791;52.752;8.346;2023-05-31T14:04:50;5.55;;;1.40;;
48975;SDS011;34791;52.752;8.346;2023-05-31T14:07:15;6.18;;;1.40;;
48975;SDS011;34791;52.752;8.346;2023-05-31T14:09:40;7.15;;;1.63;;
48975;SDS011;34791;52.752;8.346;2023-05-31T14:12:07;4.55;;;1.45;;
48975;SDS011;34791;52.752;8.346;2023-05-31T14:14:32;4.75;;;1.20;;
48975;SDS011;34791;52.752;8.346;2023-05-31T14:16:58;4.82;;;1.10;;
48975;SDS011;34791;52.752;8.346;2023-05-31T14:19:24;4.45;;;1.10;;
48975;SDS011;34791;52.752;8.346;2023-05-31T14:21:50;6.38;;;1.30;;
48975;SDS011;34791;52.752;8.346;2023-05-31T14:24:15;4.80;;;1.40;;
48975;SDS011;34791;52.752;8.346;2023-05-31T14:26:41;4.93;;;1.38;;
48975;SDS011;34791;52.752;8.346;2023-05-31T14:29:06;5.78;;;1.20;;
48975;SDS011;34791;52.752;8.346;2023-05-31T14:31:31;4.03;;;1.20;;
48975;SDS011;34791;52.752;8.346;2023-05-31T14:33:57;4.00;;;1.50;;
48975;SDS011;34791;52.752;8.346;2023-05-31T14:36:22;6.65;;;1.40;;
48975;SDS011;34791;52.752;8.346;2023-05-31T14:38:48;4.00;;;1.30;;
48975;SDS011;34791;52.752;8.346;2023-05-31T14:41:13;4.63;;;1.38;;
48975;SDS011;34791;52.752;8.346;2023-05-31T14:43:39;5.03;;;1.30;;
48975;SDS011;34791;52.752;8.346;2023-05-31T14:46:04;4.45;;;1.30;;
48975;SDS011;34791;52.752;8.346;2023-05-31T14:48:30;5.72;;;1.48;;
48975;SDS011;34791;52.752;8.346;2023-05-31T14:50:55;5.80;;;1.30;;
48975;SDS011;34791;52.752;8.346;2023-05-31T14:53:20;4.85;;;1.35;;